Flight Track Log - Related Links

Times and Time Zones

All times are in EDT time to prevent confusion due to time zone crossing. See the SWA3294 flight status page for this flight to view local times or setup timezone preferences in your user account.

Time Position Orientation Groundspeed Altitude Reporting Facility
EDT Latitude Longitude Course Direction KTS MPH feet Rate Location/Type
Sat 06:21:56 AM 33.6500 -84.4667 270° West 161 185 2,600  Level Atlanta TRACON
Sat 06:22:50 AM 33.6500 -84.5167 270° West 209 241 5,200 2,947 Climbing Atlanta TRACON
Sat 06:23:50 AM 33.7000 -84.5500 331° Northwest 238 274 8,200 2,533 Climbing Atlanta TRACON
Sat 06:25:50 AM 33.7542 -84.3636 71° East 314 361 12,800 2,500 Climbing Atlanta Center
Sat 06:26:50 AM 33.7817 -84.2536 73° East 333 383 15,700 3,050 Climbing Atlanta Center
Sat 06:27:50 AM 33.8172 -84.1289 71° East 373 429 18,900 2,950 Climbing Atlanta Center
Sat 06:28:50 AM 33.8528 -83.9989 72° East 397 457 21,600 2,050 Climbing Atlanta Center
Sat 06:29:50 AM 33.8839 -83.8786 73° East 408 470 23,000 1,450 Climbing Atlanta Center
Sat 06:30:50 AM 33.9211 -83.7408 72° East 421 484 24,500 1,800 Climbing Atlanta Center
Sat 06:31:50 AM 33.9897 -83.6228 55° Northeast 421 484 26,600 2,000 Climbing Atlanta Center
Sat 06:32:50 AM 34.0644 -83.4972 54° Northeast 437 503 28,500 1,835 Climbing Atlanta Center
Sat 06:33:51 AM 34.1472 -83.3736 51° Northeast 468 539 30,300 1,700 Climbing Atlanta Center
Sat 06:34:50 AM 34.2278 -83.2397 54° Northeast 481 554 31,900 1,765 Climbing Atlanta Center
Sat 06:35:50 AM 34.3103 -83.1058 53° Northeast 491 565 33,800 1,750 Climbing Atlanta Center
Sat 06:36:50 AM 34.3969 -82.9714 52° Northeast 499 574 35,400 1,550 Climbing Atlanta Center
Sat 06:37:50 AM 34.4853 -82.8192 55° Northeast 505 581 36,900 793 Climbing Atlanta Center
Sat 06:38:51 AM 34.5714 -82.6817 53° Northeast 510 587 37,000 50 Climbing Atlanta Center
Sat 06:39:50 AM 34.6556 -82.5489 52° Northeast 505 581 37,000  Level Atlanta Center
Sat 06:40:50 AM 34.7394 -82.4108 53° Northeast 505 581 37,000  Level Atlanta Center
Sat 06:41:50 AM 34.8250 -82.2753 52° Northeast 505 581 37,000  Level Atlanta Center
Sat 06:42:50 AM 34.9006 -82.1494 54° Northeast 510 587 37,000  Level Atlanta Center
Sat 06:43:50 AM 34.9919 -81.9978 54° Northeast 505 581 37,000  Level Atlanta Center
Sat 06:44:50 AM 35.0708 -81.8614 55° Northeast 505 581 37,000  Level Atlanta Center
Sat 06:45:51 AM 35.1475 -81.7144 57° Northeast 510 587 37,000  Level Atlanta Center
Sat 06:46:51 AM 35.2239 -81.5700 57° Northeast 510 587 37,000  Level Atlanta Center
Sat 06:47:50 AM 35.3003 -81.4203 58° Northeast 515 593 37,000  Level Atlanta Center
Sat 06:48:50 AM 35.3764 -81.2750 57° Northeast 515 593 37,000  Level Atlanta Center
Sat 06:49:50 AM 35.4542 -81.1219 58° Northeast 515 593 37,000  Level Atlanta Center
Sat 06:50:50 AM 35.5339 -80.9739 56° Northeast 515 593 37,000  Level Atlanta Center
Sat 06:51:51 AM 35.6114 -80.8253 57° Northeast 515 593 37,000  Level Atlanta Center
Sat 06:52:51 AM 35.6889 -80.6764 57° Northeast 515 593 37,000  Level Atlanta Center
Sat 06:54:23 AM 35.8072 -80.4456 58° Northeast 521 600 37,000  Level Washington Center
Sat 06:55:23 AM 35.8819 -80.3014 57° Northeast 513 590 37,000  Level Washington Center
Sat 06:56:23 AM 35.9589 -80.1469 58° Northeast 508 585 37,000  Level Washington Center
Sat 06:57:23 AM 36.0331 -80.0047 57° Northeast 509 586 37,000  Level Washington Center
Sat 06:58:23 AM 36.1156 -79.8578 55° Northeast 509 586 37,000  Level Washington Center
Sat 06:59:23 AM 36.1981 -79.7078 56° Northeast 514 592 37,000  Level Washington Center
Sat 07:00:23 AM 36.2800 -79.5653 54° Northeast 514 592 37,000  Level Washington Center
Sat 07:01:23 AM 36.3639 -79.4197 54° Northeast 514 592 37,000  Level Washington Center
Sat 07:02:23 AM 36.4439 -79.2714 56° Northeast 514 592 37,000 -600 Level Washington Center
Sat 07:03:23 AM 36.5256 -79.1228 56° Northeast 514 592 35,800 -2,350 Descending Washington Center
Sat 07:04:23 AM 36.6089 -78.9789 54° Northeast 514 592 32,300 -3,000 Descending Washington Center
Sat 07:05:23 AM 36.6817 -78.8422 56° Northeast 514 592 29,800 -1,650 Descending Washington Center
Sat 07:06:23 AM 36.7606 -78.7006 55° Northeast 514 592 29,000 -400 Descending Washington Center
Sat 07:07:23 AM 36.8411 -78.5636 54° Northeast 506 582 29,000  Level Washington Center
Sat 07:08:23 AM 36.9564 -78.4589 36° Northeast 467 537 29,000  Level Washington Center
Sat 07:09:23 AM 37.0586 -78.3636 37° Northeast 460 529 29,000  Level Washington Center
Sat 07:10:23 AM 37.1672 -78.2686 35° Northeast 465 535 29,000  Level Washington Center
Sat 07:11:23 AM 37.2653 -78.1781 36° Northeast 475 547 29,000  Level Washington Center
Sat 07:12:23 AM 37.3778 -78.0772 35° Northeast 464 534 29,000  Level Washington Center
Sat 07:13:23 AM 37.4842 -77.9761 37° Northeast 469 540 29,000 -850 Level Washington Center
Sat 07:14:23 AM 37.5906 -77.8797 36° Northeast 469 540 27,300 -2,100 Descending Washington Center
Sat 07:15:23 AM 37.6922 -77.7831 37° Northeast 464 534 24,800 -2,150 Descending Washington Center
Sat 07:16:23 AM 37.7942 -77.6914 35° Northeast 458 527 23,000 -900 Descending Washington Center
Sat 07:17:23 AM 37.8917 -77.5994 37° Northeast 445 512 23,000  Level Washington Center
Sat 07:18:23 AM 37.9892 -77.5072 37° Northeast 440 506 23,000 -350 Level Washington Center
Sat 07:19:23 AM 38.0822 -77.4200 36° Northeast 440 506 22,300 -1,500 Descending Washington Center
Sat 07:20:23 AM 38.1708 -77.3375 36° Northeast 435 501 20,000 -2,300 Descending Washington Center
Sat 07:21:23 AM 38.2661 -77.2497 36° Northeast 429 494 17,700 -2,300 Descending Washington Center
Sat 07:22:23 AM 38.3528 -77.1644 38° Northeast 411 473 15,400 -1,900 Descending Washington Center
Sat 07:23:23 AM 38.4372 -77.0708 41° Northeast 404 465 13,900 -1,800 Descending Washington Center
Sat 07:24:23 AM 38.5156 -76.9742 44° Northeast 390 449 11,800 -1,050 Descending Washington Center
Sat 07:25:23 AM 38.6022 -76.8775 41° Northeast 376 433 11,800 -850 Level Washington Center
Sat 07:26:23 AM 38.6614 -76.8014 45° Northeast 359 413 10,100 -1,400 Descending Washington Center
Sat 07:27:23 AM 38.7183 -76.7172 49° Northeast 326 375 9,000 -1,300 Descending Washington Center
Sat 07:28:23 AM 38.7608 -76.6219 60° Northeast 311 358 7,500 -1,442 Descending Washington Center
Sat 07:29:32 AM 38.8000 -76.5167 64° Northeast 290 334 5,900 -1,163 Descending Potomac TRACON
Sat 07:30:32 AM 38.8667 -76.4667 30° Northeast 260 299 5,000 -450 Descending Potomac TRACON
Sat 07:31:32 AM 38.9333 -76.4833 349° North 196 226 5,000  Level Potomac TRACON
Sat 07:32:26 AM 38.9667 -76.5000 339° North 164 189 5,000 -556 Level Potomac TRACON
Sat 07:33:20 AM 39.0167 -76.5167 345° North 159 183 4,000 -1,158 Descending Potomac TRACON
Sat 07:34:20 AM 39.0500 -76.5500 322° Northwest 157 181 2,800 -800 Descending Potomac TRACON
Sat 07:35:20 AM 39.0833 -76.5833 322° Northwest 156 180 2,400 -650 Descending Potomac TRACON
Sat 07:36:20 AM 39.1167 -76.6167 322° Northwest 133 153 1,500 -800 Descending Potomac TRACON
Sat 07:37:20 AM 39.1333 -76.6333 322° Northwest 122 140 800 -700 Descending Potomac TRACON
Sat 07:39:00 AM 39.1667 -76.6667 339° North  Level FlightAware Approximate
Sat 07:46:00 AM 39.1754 -76.6683 339° North  Level Estimated
Sat 07:47:00 AM 39.1754 -76.6683 339° North  Level Estimated
Sat 07:48:00 AM 39.1754 -76.6683 339° North  Level Estimated

Login

Don't have an account? Register now (free) for customized features, flight alerts, and more!